sensor_id;sensor_type;location;lat;lon;timestamp;P1;durP1;ratioP1;P2;durP2;ratioP2
76475;SDS011;65308;50.078;14.854;2023-12-04T00:01:14;15.85;;;6.97;;
76475;SDS011;65308;50.078;14.854;2023-12-04T00:03:41;12.77;;;6.13;;
76475;SDS011;65308;50.078;14.854;2023-12-04T00:06:07;15.60;;;6.28;;
76475;SDS011;65308;50.078;14.854;2023-12-04T00:08:35;13.85;;;6.03;;
76475;SDS011;65308;50.078;14.854;2023-12-04T00:11:02;12.00;;;5.75;;
76475;SDS011;65308;50.078;14.854;2023-12-04T00:13:28;12.63;;;5.25;;
76475;SDS011;65308;50.078;14.854;2023-12-04T00:15:55;12.13;;;5.85;;
76475;SDS011;65308;50.078;14.854;2023-12-04T00:18:22;13.63;;;5.35;;
76475;SDS011;65308;50.078;14.854;2023-12-04T00:20:49;13.82;;;6.28;;
76475;SDS011;65308;50.078;14.854;2023-12-04T00:23:15;14.77;;;7.03;;
76475;SDS011;65308;50.078;14.854;2023-12-04T00:25:42;16.13;;;7.68;;
76475;SDS011;65308;50.078;14.854;2023-12-04T00:28:08;16.25;;;7.03;;
76475;SDS011;65308;50.078;14.854;2023-12-04T00:30:35;15.32;;;8.35;;
76475;SDS011;65308;50.078;14.854;2023-12-04T00:33:01;15.45;;;7.07;;
76475;SDS011;65308;50.078;14.854;2023-12-04T00:35:29;14.48;;;5.82;;
76475;SDS011;65308;50.078;14.854;2023-12-04T00:40:22;12.50;;;4.97;;
76475;SDS011;65308;50.078;14.854;2023-12-04T00:42:48;13.20;;;5.30;;
76475;SDS011;65308;50.078;14.854;2023-12-04T00:45:15;14.65;;;5.57;;
76475;SDS011;65308;50.078;14.854;2023-12-04T00:47:41;14.18;;;6.32;;
76475;SDS011;65308;50.078;14.854;2023-12-04T00:50:08;13.93;;;6.30;;
76475;SDS011;65308;50.078;14.854;2023-12-04T00:52:36;16.77;;;6.20;;
76475;SDS011;65308;50.078;14.854;2023-12-04T00:55:03;13.63;;;6.32;;
76475;SDS011;65308;50.078;14.854;2023-12-04T00:57:29;14.45;;;6.63;;
76475;SDS011;65308;50.078;14.854;2023-12-04T00:59:56;18.15;;;6.90;;
76475;SDS011;65308;50.078;14.854;2023-12-04T01:02:22;13.63;;;5.85;;
76475;SDS011;65308;50.078;14.854;2023-12-04T01:04:48;14.90;;;6.13;;
76475;SDS011;65308;50.078;14.854;2023-12-04T01:07:15;13.73;;;6.35;;
76475;SDS011;65308;50.078;14.854;2023-12-04T01:09:43;14.48;;;6.20;;
76475;SDS011;65308;50.078;14.854;2023-12-04T01:12:10;12.30;;;5.47;;
76475;SDS011;65308;50.078;14.854;2023-12-04T01:14:36;27.70;;;8.90;;
76475;SDS011;65308;50.078;14.854;2023-12-04T01:17:03;19.45;;;7.55;;
76475;SDS011;65308;50.078;14.854;2023-12-04T01:19:29;26.95;;;10.40;;
76475;SDS011;65308;50.078;14.854;2023-12-04T01:21:56;25.52;;;9.85;;
76475;SDS011;65308;50.078;14.854;2023-12-04T01:24:22;42.55;;;15.98;;
76475;SDS011;65308;50.078;14.854;2023-12-04T01:26:50;25.08;;;9.75;;
76475;SDS011;65308;50.078;14.854;2023-12-04T01:31:43;18.15;;;7.75;;
76475;SDS011;65308;50.078;14.854;2023-12-04T01:34:10;28.55;;;10.77;;
76475;SDS011;65308;50.078;14.854;2023-12-04T01:36:39;27.73;;;9.75;;
76475;SDS011;65308;50.078;14.854;2023-12-04T01:39:06;25.33;;;8.68;;
76475;SDS011;65308;50.078;14.854;2023-12-04T01:41:32;23.75;;;8.55;;
76475;SDS011;65308;50.078;14.854;2023-12-04T01:44:00;23.90;;;9.80;;
76475;SDS011;65308;50.078;14.854;2023-12-04T01:46:26;27.80;;;10.98;;
76475;SDS011;65308;50.078;14.854;2023-12-04T01:48:52;23.35;;;8.90;;
76475;SDS011;65308;50.078;14.854;2023-12-04T01:51:19;23.13;;;7.75;;
76475;SDS011;65308;50.078;14.854;2023-12-04T01:53:46;14.32;;;7.53;;
76475;SDS011;65308;50.078;14.854;2023-12-04T01:56:13;16.02;;;6.53;;
76475;SDS011;65308;50.078;14.854;2023-12-04T01:58:39;13.10;;;6.05;;
76475;SDS011;65308;50.078;14.854;2023-12-04T02:01:07;13.32;;;5.10;;
76475;SDS011;65308;50.078;14.854;2023-12-04T02:03:35;13.75;;;5.18;;
76475;SDS011;65308;50.078;14.854;2023-12-04T02:06:01;12.38;;;4.90;;
76475;SDS011;65308;50.078;14.854;2023-12-04T02:08:28;10.88;;;4.40;;
76475;SDS011;65308;50.078;14.854;2023-12-04T02:10:55;14.93;;;5.93;;
76475;SDS011;65308;50.078;14.854;2023-12-04T02:13:21;14.57;;;5.82;;
76475;SDS011;65308;50.078;14.854;2023-12-04T02:15:49;15.43;;;5.90;;
76475;SDS011;65308;50.078;14.854;2023-12-04T02:18:19;12.15;;;5.32;;
76475;SDS011;65308;50.078;14.854;2023-12-04T02:20:47;9.65;;;4.70;;
76475;SDS011;65308;50.078;14.854;2023-12-04T02:23:13;8.40;;;4.10;;
76475;SDS011;65308;50.078;14.854;2023-12-04T02:25:41;11.35;;;4.97;;
76475;SDS011;65308;50.078;14.854;2023-12-04T02:28:09;15.65;;;5.82;;
76475;SDS011;65308;50.078;14.854;2023-12-04T02:30:37;15.35;;;6.15;;
76475;SDS011;65308;50.078;14.854;2023-12-04T02:33:05;12.55;;;5.50;;
76475;SDS011;65308;50.078;14.854;2023-12-04T02:35:32;12.43;;;5.55;;
76475;SDS011;65308;50.078;14.854;2023-12-04T02:37:59;9.88;;;4.10;;
76475;SDS011;65308;50.078;14.854;2023-12-04T02:40:27;11.63;;;4.63;;
76475;SDS011;65308;50.078;14.854;2023-12-04T02:42:55;10.40;;;4.95;;
76475;SDS011;65308;50.078;14.854;2023-12-04T02:45:21;8.88;;;4.95;;
76475;SDS011;65308;50.078;14.854;2023-12-04T02:47:48;11.18;;;5.60;;
76475;SDS011;65308;50.078;14.854;2023-12-04T02:50:15;12.40;;;5.38;;
76475;SDS011;65308;50.078;14.854;2023-12-04T02:52:41;14.68;;;5.55;;
76475;SDS011;65308;50.078;14.854;2023-12-04T02:55:08;12.95;;;5.68;;
76475;SDS011;65308;50.078;14.854;2023-12-04T02:57:34;11.98;;;5.43;;
76475;SDS011;65308;50.078;14.854;2023-12-04T03:00:02;14.30;;;5.40;;
76475;SDS011;65308;50.078;14.854;2023-12-04T03:02:29;10.70;;;4.28;;
76475;SDS011;65308;50.078;14.854;2023-12-04T03:04:56;10.68;;;4.10;;
76475;SDS011;65308;50.078;14.854;2023-12-04T03:07:22;12.93;;;4.93;;
76475;SDS011;65308;50.078;14.854;2023-12-04T03:09:49;8.23;;;4.03;;
76475;SDS011;65308;50.078;14.854;2023-12-04T03:12:16;12.07;;;5.72;;
76475;SDS011;65308;50.078;14.854;2023-12-04T03:14:43;15.88;;;5.70;;
76475;SDS011;65308;50.078;14.854;2023-12-04T03:17:10;13.40;;;5.25;;
76475;SDS011;65308;50.078;14.854;2023-12-04T03:19:37;16.58;;;6.60;;
76475;SDS011;65308;50.078;14.854;2023-12-04T03:22:03;11.32;;;5.22;;
76475;SDS011;65308;50.078;14.854;2023-12-04T03:24:30;16.23;;;5.68;;
76475;SDS011;65308;50.078;14.854;2023-12-04T03:26:57;13.82;;;5.85;;
76475;SDS011;65308;50.078;14.854;2023-12-04T03:29:23;12.10;;;4.90;;
76475;SDS011;65308;50.078;14.854;2023-12-04T03:31:50;16.77;;;6.03;;
76475;SDS011;65308;50.078;14.854;2023-12-04T03:34:18;11.88;;;4.63;;
76475;SDS011;65308;50.078;14.854;2023-12-04T03:36:45;17.35;;;5.05;;
76475;SDS011;65308;50.078;14.854;2023-12-04T03:39:11;9.63;;;4.75;;
76475;SDS011;65308;50.078;14.854;2023-12-04T03:41:37;11.25;;;5.53;;
76475;SDS011;65308;50.078;14.854;2023-12-04T03:44:04;13.50;;;5.28;;
76475;SDS011;65308;50.078;14.854;2023-12-04T03:46:30;14.63;;;5.40;;
76475;SDS011;65308;50.078;14.854;2023-12-04T03:48:57;13.48;;;5.38;;
76475;SDS011;65308;50.078;14.854;2023-12-04T03:51:25;14.77;;;4.50;;
76475;SDS011;65308;50.078;14.854;2023-12-04T03:53:51;10.25;;;5.05;;
76475;SDS011;65308;50.078;14.854;2023-12-04T03:56:18;15.98;;;5.70;;
76475;SDS011;65308;50.078;14.854;2023-12-04T03:58:45;10.63;;;4.93;;
76475;SDS011;65308;50.078;14.854;2023-12-04T04:01:11;10.18;;;4.82;;
76475;SDS011;65308;50.078;14.854;2023-12-04T04:03:38;11.85;;;4.88;;
76475;SDS011;65308;50.078;14.854;2023-12-04T04:06:04;10.90;;;4.97;;
76475;SDS011;65308;50.078;14.854;2023-12-04T04:08:33;8.80;;;4.88;;
76475;SDS011;65308;50.078;14.854;2023-12-04T04:10:59;8.95;;;5.05;;
76475;SDS011;65308;50.078;14.854;2023-12-04T04:13:25;14.30;;;5.53;;
76475;SDS011;65308;50.078;14.854;2023-12-04T04:15:52;11.07;;;4.60;;
76475;SDS011;65308;50.078;14.854;2023-12-04T04:18:19;11.45;;;5.03;;
76475;SDS011;65308;50.078;14.854;2023-12-04T04:20:45;14.20;;;4.72;;
76475;SDS011;65308;50.078;14.854;2023-12-04T04:23:12;9.48;;;4.38;;
76475;SDS011;65308;50.078;14.854;2023-12-04T04:25:39;11.77;;;5.10;;
76475;SDS011;65308;50.078;14.854;2023-12-04T04:28:06;11.02;;;5.60;;
76475;SDS011;65308;50.078;14.854;2023-12-04T04:30:32;9.98;;;4.75;;
76475;SDS011;65308;50.078;14.854;2023-12-04T04:32:59;12.80;;;4.85;;
76475;SDS011;65308;50.078;14.854;2023-12-04T04:35:25;13.10;;;4.60;;
76475;SDS011;65308;50.078;14.854;2023-12-04T04:37:52;16.17;;;5.68;;
76475;SDS011;65308;50.078;14.854;2023-12-04T04:40:18;12.95;;;5.80;;
76475;SDS011;65308;50.078;14.854;2023-12-04T04:42:46;10.85;;;4.90;;
76475;SDS011;65308;50.078;14.854;2023-12-04T04:45:13;12.10;;;5.70;;
76475;SDS011;65308;50.078;14.854;2023-12-04T04:47:39;15.73;;;6.00;;
76475;SDS011;65308;50.078;14.854;2023-12-04T04:50:14;17.23;;;6.35;;
76475;SDS011;65308;50.078;14.854;2023-12-04T04:52:41;22.00;;;7.07;;
76475;SDS011;65308;50.078;14.854;2023-12-04T04:55:07;19.10;;;6.95;;
76475;SDS011;65308;50.078;14.854;2023-12-04T04:57:34;17.60;;;6.35;;
76475;SDS011;65308;50.078;14.854;2023-12-04T05:00:02;15.60;;;6.53;;
76475;SDS011;65308;50.078;14.854;2023-12-04T05:02:28;16.17;;;7.47;;
76475;SDS011;65308;50.078;14.854;2023-12-04T05:04:56;17.33;;;6.22;;
76475;SDS011;65308;50.078;14.854;2023-12-04T05:07:22;13.20;;;6.55;;
76475;SDS011;65308;50.078;14.854;2023-12-04T05:09:49;13.27;;;6.22;;
76475;SDS011;65308;50.078;14.854;2023-12-04T05:12:15;16.73;;;7.38;;
76475;SDS011;65308;50.078;14.854;2023-12-04T05:14:42;13.38;;;5.85;;
76475;SDS011;65308;50.078;14.854;2023-12-04T05:17:10;14.65;;;6.30;;
76475;SDS011;65308;50.078;14.854;2023-12-04T05:19:36;16.35;;;6.72;;
76475;SDS011;65308;50.078;14.854;2023-12-04T05:22:03;12.55;;;5.00;;
76475;SDS011;65308;50.078;14.854;2023-12-04T05:24:29;17.25;;;5.57;;
76475;SDS011;65308;50.078;14.854;2023-12-04T05:26:56;14.18;;;6.22;;
76475;SDS011;65308;50.078;14.854;2023-12-04T05:29:22;19.13;;;8.27;;
76475;SDS011;65308;50.078;14.854;2023-12-04T05:31:49;12.10;;;6.15;;
76475;SDS011;65308;50.078;14.854;2023-12-04T05:34:16;16.67;;;6.80;;
76475;SDS011;65308;50.078;14.854;2023-12-04T05:36:43;15.43;;;5.75;;
76475;SDS011;65308;50.078;14.854;2023-12-04T05:39:09;15.48;;;5.88;;
76475;SDS011;65308;50.078;14.854;2023-12-04T05:41:36;15.15;;;6.07;;
76475;SDS011;65308;50.078;14.854;2023-12-04T05:44:03;15.55;;;6.05;;
76475;SDS011;65308;50.078;14.854;2023-12-04T05:46:29;14.32;;;6.95;;
76475;SDS011;65308;50.078;14.854;2023-12-04T05:48:57;13.73;;;6.22;;
76475;SDS011;65308;50.078;14.854;2023-12-04T05:51:25;20.77;;;6.45;;
76475;SDS011;65308;50.078;14.854;2023-12-04T05:53:51;16.05;;;6.13;;
76475;SDS011;65308;50.078;14.854;2023-12-04T05:56:18;13.55;;;5.75;;
76475;SDS011;65308;50.078;14.854;2023-12-04T05:58:44;15.23;;;6.15;;
76475;SDS011;65308;50.078;14.854;2023-12-04T06:01:10;14.90;;;7.18;;
76475;SDS011;65308;50.078;14.854;2023-12-04T06:03:37;20.77;;;7.65;;
76475;SDS011;65308;50.078;14.854;2023-12-04T06:06:04;17.20;;;7.32;;
76475;SDS011;65308;50.078;14.854;2023-12-04T06:08:32;15.90;;;6.78;;
76475;SDS011;65308;50.078;14.854;2023-12-04T06:10:58;18.73;;;6.55;;
76475;SDS011;65308;50.078;14.854;2023-12-04T06:13:25;15.60;;;6.40;;
76475;SDS011;65308;50.078;14.854;2023-12-04T06:15:51;16.30;;;6.72;;
76475;SDS011;65308;50.078;14.854;2023-12-04T06:18:18;16.70;;;6.03;;
76475;SDS011;65308;50.078;14.854;2023-12-04T06:20:45;8.55;;;4.32;;
76475;SDS011;65308;50.078;14.854;2023-12-04T06:23:12;15.18;;;5.47;;
76475;SDS011;65308;50.078;14.854;2023-12-04T06:25:41;21.92;;;7.93;;
76475;SDS011;65308;50.078;14.854;2023-12-04T06:28:08;13.98;;;6.65;;
76475;SDS011;65308;50.078;14.854;2023-12-04T06:30:34;14.70;;;6.53;;
76475;SDS011;65308;50.078;14.854;2023-12-04T06:33:01;12.35;;;6.05;;
76475;SDS011;65308;50.078;14.854;2023-12-04T06:35:28;15.23;;;6.60;;
76475;SDS011;65308;50.078;14.854;2023-12-04T06:37:56;17.17;;;7.03;;
76475;SDS011;65308;50.078;14.854;2023-12-04T06:40:25;14.70;;;6.68;;
76475;SDS011;65308;50.078;14.854;2023-12-04T06:42:53;21.52;;;7.20;;
76475;SDS011;65308;50.078;14.854;2023-12-04T06:47:46;23.60;;;6.57;;
76475;SDS011;65308;50.078;14.854;2023-12-04T06:52:42;18.65;;;6.82;;
76475;SDS011;65308;50.078;14.854;2023-12-04T06:55:08;13.23;;;6.75;;
76475;SDS011;65308;50.078;14.854;2023-12-04T06:57:35;16.05;;;6.70;;
76475;SDS011;65308;50.078;14.854;2023-12-04T07:00:03;18.27;;;7.43;;
76475;SDS011;65308;50.078;14.854;2023-12-04T07:02:31;13.82;;;6.80;;
76475;SDS011;65308;50.078;14.854;2023-12-04T07:04:58;14.75;;;5.07;;
76475;SDS011;65308;50.078;14.854;2023-12-04T07:07:24;17.83;;;7.43;;
76475;SDS011;65308;50.078;14.854;2023-12-04T07:09:51;16.52;;;6.93;;
76475;SDS011;65308;50.078;14.854;2023-12-04T07:12:17;16.73;;;7.47;;
76475;SDS011;65308;50.078;14.854;2023-12-04T07:14:44;35.90;;;13.25;;
76475;SDS011;65308;50.078;14.854;2023-12-04T07:17:12;39.15;;;15.50;;
76475;SDS011;65308;50.078;14.854;2023-12-04T07:19:40;35.50;;;12.82;;
76475;SDS011;65308;50.078;14.854;2023-12-04T07:22:07;39.50;;;13.93;;
76475;SDS011;65308;50.078;14.854;2023-12-04T07:24:34;21.15;;;8.75;;
76475;SDS011;65308;50.078;14.854;2023-12-04T07:27:01;21.73;;;9.52;;
76475;SDS011;65308;50.078;14.854;2023-12-04T07:29:27;25.33;;;10.30;;
76475;SDS011;65308;50.078;14.854;2023-12-04T07:31:54;23.95;;;9.95;;
76475;SDS011;65308;50.078;14.854;2023-12-04T07:34:22;23.10;;;10.43;;
76475;SDS011;65308;50.078;14.854;2023-12-04T07:36:48;29.60;;;12.07;;
76475;SDS011;65308;50.078;14.854;2023-12-04T07:39:15;28.45;;;9.82;;
76475;SDS011;65308;50.078;14.854;2023-12-04T07:41:42;21.13;;;9.77;;
76475;SDS011;65308;50.078;14.854;2023-12-04T07:44:09;20.05;;;9.52;;
76475;SDS011;65308;50.078;14.854;2023-12-04T07:46:36;45.00;;;17.40;;
76475;SDS011;65308;50.078;14.854;2023-12-04T07:49:02;31.98;;;14.23;;
76475;SDS011;65308;50.078;14.854;2023-12-04T07:51:30;31.33;;;13.60;;
76475;SDS011;65308;50.078;14.854;2023-12-04T07:53:57;29.25;;;13.10;;
76475;SDS011;65308;50.078;14.854;2023-12-04T07:56:24;25.40;;;12.10;;
76475;SDS011;65308;50.078;14.854;2023-12-04T07:58:51;28.38;;;12.63;;
76475;SDS011;65308;50.078;14.854;2023-12-04T08:01:17;24.08;;;10.98;;
76475;SDS011;65308;50.078;14.854;2023-12-04T08:03:44;26.45;;;10.95;;
76475;SDS011;65308;50.078;14.854;2023-12-04T08:06:11;24.50;;;10.88;;
76475;SDS011;65308;50.078;14.854;2023-12-04T08:08:39;25.55;;;11.30;;
76475;SDS011;65308;50.078;14.854;2023-12-04T08:11:09;28.42;;;12.35;;
76475;SDS011;65308;50.078;14.854;2023-12-04T08:13:35;26.90;;;12.20;;
76475;SDS011;65308;50.078;14.854;2023-12-04T08:16:02;30.13;;;12.88;;
76475;SDS011;65308;50.078;14.854;2023-12-04T08:18:29;35.42;;;15.45;;
76475;SDS011;65308;50.078;14.854;2023-12-04T08:20:55;37.88;;;16.35;;
76475;SDS011;65308;50.078;14.854;2023-12-04T08:23:22;39.33;;;16.95;;
76475;SDS011;65308;50.078;14.854;2023-12-04T08:25:50;32.05;;;14.85;;
76475;SDS011;65308;50.078;14.854;2023-12-04T08:28:16;30.33;;;14.10;;
76475;SDS011;65308;50.078;14.854;2023-12-04T08:30:43;21.35;;;10.60;;
76475;SDS011;65308;50.078;14.854;2023-12-04T08:33:09;20.20;;;9.93;;
76475;SDS011;65308;50.078;14.854;2023-12-04T08:35:36;24.58;;;10.35;;
76475;SDS011;65308;50.078;14.854;2023-12-04T08:38:02;21.88;;;10.63;;
76475;SDS011;65308;50.078;14.854;2023-12-04T08:40:29;21.65;;;10.52;;
76475;SDS011;65308;50.078;14.854;2023-12-04T08:42:57;23.25;;;9.52;;
76475;SDS011;65308;50.078;14.854;2023-12-04T08:45:23;24.17;;;11.88;;
76475;SDS011;65308;50.078;14.854;2023-12-04T08:47:49;21.52;;;9.98;;
76475;SDS011;65308;50.078;14.854;2023-12-04T08:50:16;22.35;;;10.82;;
76475;SDS011;65308;50.078;14.854;2023-12-04T08:52:42;20.67;;;10.60;;
76475;SDS011;65308;50.078;14.854;2023-12-04T08:55:10;21.13;;;10.05;;
76475;SDS011;65308;50.078;14.854;2023-12-04T08:57:37;21.17;;;9.82;;
76475;SDS011;65308;50.078;14.854;2023-12-04T09:00:05;17.88;;;8.38;;
76475;SDS011;65308;50.078;14.854;2023-12-04T09:02:33;17.02;;;7.68;;
76475;SDS011;65308;50.078;14.854;2023-12-04T09:05:00;18.90;;;8.57;;
76475;SDS011;65308;50.078;14.854;2023-12-04T09:07:27;19.08;;;7.55;;
76475;SDS011;65308;50.078;14.854;2023-12-04T09:09:53;17.63;;;8.30;;
76475;SDS011;65308;50.078;14.854;2023-12-04T09:12:20;19.77;;;8.32;;
76475;SDS011;65308;50.078;14.854;2023-12-04T09:14:47;22.90;;;9.60;;
76475;SDS011;65308;50.078;14.854;2023-12-04T09:17:15;16.25;;;8.23;;
76475;SDS011;65308;50.078;14.854;2023-12-04T09:19:42;16.20;;;8.05;;
76475;SDS011;65308;50.078;14.854;2023-12-04T09:22:09;16.55;;;7.32;;
76475;SDS011;65308;50.078;14.854;2023-12-04T09:24:35;21.05;;;8.60;;
76475;SDS011;65308;50.078;14.854;2023-12-04T09:27:02;20.45;;;9.63;;
76475;SDS011;65308;50.078;14.854;2023-12-04T09:29:31;21.95;;;9.70;;
76475;SDS011;65308;50.078;14.854;2023-12-04T09:31:57;17.83;;;8.95;;
76475;SDS011;65308;50.078;14.854;2023-12-04T09:34:25;20.52;;;9.07;;
76475;SDS011;65308;50.078;14.854;2023-12-04T09:36:52;20.65;;;9.55;;
76475;SDS011;65308;50.078;14.854;2023-12-04T09:39:19;21.45;;;9.68;;
76475;SDS011;65308;50.078;14.854;2023-12-04T09:41:45;22.75;;;9.82;;
76475;SDS011;65308;50.078;14.854;2023-12-04T09:44:12;18.05;;;8.07;;
76475;SDS011;65308;50.078;14.854;2023-12-04T09:46:38;15.63;;;7.65;;
76475;SDS011;65308;50.078;14.854;2023-12-04T09:49:05;17.00;;;7.70;;
76475;SDS011;65308;50.078;14.854;2023-12-04T09:51:34;19.92;;;8.35;;
76475;SDS011;65308;50.078;14.854;2023-12-04T09:54:02;17.27;;;7.80;;
76475;SDS011;65308;50.078;14.854;2023-12-04T09:56:28;20.95;;;8.93;;
76475;SDS011;65308;50.078;14.854;2023-12-04T09:58:57;32.05;;;10.65;;
76475;SDS011;65308;50.078;14.854;2023-12-04T10:01:24;33.60;;;10.98;;
76475;SDS011;65308;50.078;14.854;2023-12-04T10:03:51;22.40;;;8.98;;
76475;SDS011;65308;50.078;14.854;2023-12-04T10:06:17;16.98;;;8.70;;
76475;SDS011;65308;50.078;14.854;2023-12-04T10:08:45;20.35;;;8.07;;
76475;SDS011;65308;50.078;14.854;2023-12-04T10:11:12;22.25;;;9.50;;
76475;SDS011;65308;50.078;14.854;2023-12-04T10:13:40;23.33;;;10.30;;
76475;SDS011;65308;50.078;14.854;2023-12-04T10:16:07;20.73;;;9.65;;
76475;SDS011;65308;50.078;14.854;2023-12-04T10:18:34;24.00;;;10.25;;
76475;SDS011;65308;50.078;14.854;2023-12-04T10:21:01;27.65;;;12.40;;
76475;SDS011;65308;50.078;14.854;2023-12-04T10:23:36;22.83;;;9.88;;
76475;SDS011;65308;50.078;14.854;2023-12-04T10:26:04;21.10;;;10.68;;
76475;SDS011;65308;50.078;14.854;2023-12-04T10:28:32;21.30;;;9.93;;
76475;SDS011;65308;50.078;14.854;2023-12-04T10:30:58;23.13;;;9.60;;
76475;SDS011;65308;50.078;14.854;2023-12-04T10:33:25;18.63;;;9.15;;
76475;SDS011;65308;50.078;14.854;2023-12-04T10:35:52;17.73;;;8.20;;
76475;SDS011;65308;50.078;14.854;2023-12-04T10:38:18;22.35;;;10.18;;
76475;SDS011;65308;50.078;14.854;2023-12-04T10:40:45;19.13;;;8.80;;
76475;SDS011;65308;50.078;14.854;2023-12-04T10:43:14;28.98;;;10.68;;
76475;SDS011;65308;50.078;14.854;2023-12-04T10:45:41;19.77;;;9.15;;
76475;SDS011;65308;50.078;14.854;2023-12-04T10:48:08;30.40;;;11.45;;
76475;SDS011;65308;50.078;14.854;2023-12-04T10:50:35;19.10;;;8.95;;
76475;SDS011;65308;50.078;14.854;2023-12-04T10:53:03;19.50;;;8.73;;
76475;SDS011;65308;50.078;14.854;2023-12-04T10:55:30;20.67;;;9.45;;
76475;SDS011;65308;50.078;14.854;2023-12-04T10:57:57;16.23;;;8.43;;
76475;SDS011;65308;50.078;14.854;2023-12-04T11:00:27;18.33;;;9.20;;
76475;SDS011;65308;50.078;14.854;2023-12-04T11:02:55;20.48;;;9.27;;
76475;SDS011;65308;50.078;14.854;2023-12-04T11:05:22;20.15;;;9.00;;
76475;SDS011;65308;50.078;14.854;2023-12-04T11:07:50;18.67;;;8.63;;
76475;SDS011;65308;50.078;14.854;2023-12-04T11:10:18;18.33;;;9.20;;
76475;SDS011;65308;50.078;14.854;2023-12-04T11:12:46;23.27;;;10.43;;
76475;SDS011;65308;50.078;14.854;2023-12-04T11:15:14;24.30;;;10.13;;
76475;SDS011;65308;50.078;14.854;2023-12-04T11:17:44;18.60;;;9.20;;
76475;SDS011;65308;50.078;14.854;2023-12-04T11:20:16;20.52;;;8.82;;
76475;SDS011;65308;50.078;14.854;2023-12-04T11:22:44;20.02;;;9.50;;
76475;SDS011;65308;50.078;14.854;2023-12-04T11:25:11;18.38;;;9.02;;
76475;SDS011;65308;50.078;14.854;2023-12-04T11:27:38;20.45;;;9.35;;
76475;SDS011;65308;50.078;14.854;2023-12-04T11:30:06;21.55;;;9.10;;
76475;SDS011;65308;50.078;14.854;2023-12-04T11:32:38;20.63;;;9.30;;
76475;SDS011;65308;50.078;14.854;2023-12-04T11:35:14;24.73;;;11.32;;
76475;SDS011;65308;50.078;14.854;2023-12-04T11:37:42;22.90;;;10.10;;
76475;SDS011;65308;50.078;14.854;2023-12-04T11:40:11;20.08;;;8.90;;
76475;SDS011;65308;50.078;14.854;2023-12-04T11:45:04;16.38;;;8.40;;
76475;SDS011;65308;50.078;14.854;2023-12-04T11:47:33;18.17;;;8.35;;
76475;SDS011;65308;50.078;14.854;2023-12-04T11:50:15;16.05;;;7.60;;
76475;SDS011;65308;50.078;14.854;2023-12-04T11:52:42;16.77;;;7.68;;
76475;SDS011;65308;50.078;14.854;2023-12-04T11:55:08;14.77;;;7.22;;
76475;SDS011;65308;50.078;14.854;2023-12-04T11:57:35;18.60;;;9.35;;
76475;SDS011;65308;50.078;14.854;2023-12-04T12:00:12;15.60;;;6.72;;
76475;SDS011;65308;50.078;14.854;2023-12-04T12:02:48;16.05;;;7.22;;
76475;SDS011;65308;50.078;14.854;2023-12-04T12:05:16;18.35;;;7.63;;
76475;SDS011;65308;50.078;14.854;2023-12-04T12:10:09;12.73;;;6.47;;
76475;SDS011;65308;50.078;14.854;2023-12-04T12:12:38;13.77;;;6.15;;
76475;SDS011;65308;50.078;14.854;2023-12-04T12:15:05;14.23;;;7.10;;
76475;SDS011;65308;50.078;14.854;2023-12-04T12:17:34;13.77;;;7.90;;
76475;SDS011;65308;50.078;14.854;2023-12-04T12:19:59;16.13;;;7.95;;
76475;SDS011;65308;50.078;14.854;2023-12-04T12:22:27;16.10;;;8.30;;
76475;SDS011;65308;50.078;14.854;2023-12-04T12:24:54;14.95;;;7.32;;
76475;SDS011;65308;50.078;14.854;2023-12-04T12:27:20;16.77;;;7.95;;
76475;SDS011;65308;50.078;14.854;2023-12-04T12:29:47;16.60;;;6.88;;
76475;SDS011;65308;50.078;14.854;2023-12-04T12:32:13;11.18;;;6.03;;
76475;SDS011;65308;50.078;14.854;2023-12-04T12:34:40;14.65;;;6.82;;
76475;SDS011;65308;50.078;14.854;2023-12-04T12:37:07;13.40;;;7.03;;
76475;SDS011;65308;50.078;14.854;2023-12-04T12:39:35;15.52;;;6.78;;
76475;SDS011;65308;50.078;14.854;2023-12-04T12:42:02;16.27;;;8.25;;
76475;SDS011;65308;50.078;14.854;2023-12-04T12:44:36;12.93;;;6.50;;
76475;SDS011;65308;50.078;14.854;2023-12-04T12:47:04;16.52;;;7.40;;
76475;SDS011;65308;50.078;14.854;2023-12-04T12:49:31;18.83;;;8.80;;
76475;SDS011;65308;50.078;14.854;2023-12-04T12:52:01;14.27;;;7.88;;
76475;SDS011;65308;50.078;14.854;2023-12-04T12:54:27;17.75;;;7.50;;
76475;SDS011;65308;50.078;14.854;2023-12-04T12:56:59;18.17;;;8.98;;
76475;SDS011;65308;50.078;14.854;2023-12-04T12:59:27;16.40;;;7.70;;
76475;SDS011;65308;50.078;14.854;2023-12-04T13:01:54;16.75;;;7.53;;
76475;SDS011;65308;50.078;14.854;2023-12-04T13:04:21;16.92;;;8.05;;
76475;SDS011;65308;50.078;14.854;2023-12-04T13:06:48;14.82;;;8.63;;
76475;SDS011;65308;50.078;14.854;2023-12-04T13:09:14;15.52;;;7.90;;
76475;SDS011;65308;50.078;14.854;2023-12-04T13:11:43;16.45;;;7.90;;
76475;SDS011;65308;50.078;14.854;2023-12-04T13:14:11;15.25;;;8.13;;
76475;SDS011;65308;50.078;14.854;2023-12-04T13:16:38;26.48;;;11.00;;
76475;SDS011;65308;50.078;14.854;2023-12-04T13:19:05;25.08;;;11.30;;
76475;SDS011;65308;50.078;14.854;2023-12-04T13:21:31;23.20;;;9.82;;
76475;SDS011;65308;50.078;14.854;2023-12-04T13:23:58;14.88;;;7.93;;
76475;SDS011;65308;50.078;14.854;2023-12-04T13:26:25;15.23;;;8.75;;
76475;SDS011;65308;50.078;14.854;2023-12-04T13:28:52;16.42;;;7.38;;
76475;SDS011;65308;50.078;14.854;2023-12-04T13:31:20;15.18;;;7.43;;
76475;SDS011;65308;50.078;14.854;2023-12-04T13:33:47;17.58;;;8.65;;
76475;SDS011;65308;50.078;14.854;2023-12-04T13:36:13;17.67;;;7.78;;
76475;SDS011;65308;50.078;14.854;2023-12-04T13:38:40;20.00;;;8.27;;
76475;SDS011;65308;50.078;14.854;2023-12-04T13:41:06;18.17;;;8.80;;
76475;SDS011;65308;50.078;14.854;2023-12-04T13:44:05;15.50;;;7.75;;
76475;SDS011;65308;50.078;14.854;2023-12-04T13:46:31;18.85;;;8.73;;
76475;SDS011;65308;50.078;14.854;2023-12-04T13:48:58;18.20;;;7.88;;
76475;SDS011;65308;50.078;14.854;2023-12-04T13:51:25;20.23;;;8.20;;
76475;SDS011;65308;50.078;14.854;2023-12-04T13:53:52;18.40;;;7.72;;
76475;SDS011;65308;50.078;14.854;2023-12-04T13:56:21;17.30;;;7.38;;
76475;SDS011;65308;50.078;14.854;2023-12-04T13:59:06;18.85;;;8.25;;
76475;SDS011;65308;50.078;14.854;2023-12-04T14:01:34;17.70;;;7.75;;
76475;SDS011;65308;50.078;14.854;2023-12-04T14:04:06;26.05;;;10.07;;
76475;SDS011;65308;50.078;14.854;2023-12-04T14:06:34;20.20;;;8.38;;
76475;SDS011;65308;50.078;14.854;2023-12-04T14:09:00;15.98;;;7.90;;
76475;SDS011;65308;50.078;14.854;2023-12-04T14:11:29;14.45;;;6.65;;
76475;SDS011;65308;50.078;14.854;2023-12-04T14:13:56;17.88;;;8.48;;
76475;SDS011;65308;50.078;14.854;2023-12-04T14:16:22;18.85;;;8.52;;
76475;SDS011;65308;50.078;14.854;2023-12-04T14:18:50;18.25;;;9.05;;
76475;SDS011;65308;50.078;14.854;2023-12-04T14:21:16;20.48;;;8.90;;
76475;SDS011;65308;50.078;14.854;2023-12-04T14:23:43;19.98;;;9.10;;
76475;SDS011;65308;50.078;14.854;2023-12-04T14:26:09;18.40;;;8.65;;
76475;SDS011;65308;50.078;14.854;2023-12-04T14:28:36;25.13;;;10.93;;
76475;SDS011;65308;50.078;14.854;2023-12-04T14:31:03;25.52;;;12.80;;
76475;SDS011;65308;50.078;14.854;2023-12-04T14:33:30;25.10;;;11.10;;
76475;SDS011;65308;50.078;14.854;2023-12-04T14:35:58;23.50;;;10.45;;